Time;durP1;ratioP1;P1;durP2;ratioP2;P2;SDS_P1;SDS_P2;PMS_P1;PMS_P2;Temp;Humidity;BMP_temperature;BMP_pressure;BME280_temperature;BME280_humidity;BME280_pressure;Samples;Min_cycle;Max_cycle;Signal;HPM_P1;HPM_P2
2022/02/28 00:38:01;;;;;;;10.83;6.67;;;;;;;-1.10;70.04;99059.69;6244156;28;20257;-73
2022/02/28 00:41:03;;;;;;;13.33;6.07;;;;;;;-1.08;70.17;99053.59;6262102;28;20226;-73
2022/02/28 00:44:05;;;;;;;12.40;7.30;;;;;;;-1.06;69.90;99054.44;6275336;28;20308;-73
2022/02/28 00:47:08;;;;;;;9.00;6.23;;;;;;;-0.98;68.92;99042.22;6257069;28;20690;-72
2022/02/28 00:50:11;;;;;;;14.00;7.23;;;;;;;-1.02;69.31;99050.09;6257002;28;20253;-73
2022/02/28 00:53:13;;;;;;;11.23;6.47;;;;;;;-0.98;68.53;99036.19;6256875;28;20329;-72
2022/02/28 00:56:15;;;;;;;11.57;6.20;;;;;;;-1.04;68.88;99034.56;6275458;28;20237;-72
2022/02/28 00:59:17;;;;;;;14.17;6.80;;;;;;;-1.16;69.81;99032.97;6246235;28;20230;-72
2022/02/28 01:02:20;;;;;;;13.83;7.03;;;;;;;-1.23;70.09;99030.47;6261908;28;20232;-72
2022/02/28 01:05:23;;;;;;;13.50;7.77;;;;;;;-1.26;68.85;99025.31;6279555;28;20237;-73
2022/02/28 01:08:25;;;;;;;12.03;6.77;;;;;;;-1.28;69.30;99029.66;6256188;28;20222;-72
2022/02/28 01:11:28;;;;;;;12.87;7.37;;;;;;;-1.28;69.05;99025.31;6262149;28;20227;-73
2022/02/28 01:14:31;;;;;;;11.17;6.53;;;;;;;-1.33;69.28;99029.72;6261669;28;20945;-73
2022/02/28 01:17:33;;;;;;;15.37;6.93;;;;;;;-1.42;69.42;99031.53;6278883;28;20246;-73
2022/02/28 01:20:36;;;;;;;15.77;7.00;;;;;;;-1.54;69.89;99027.34;6261063;28;20283;-73
2022/02/28 01:23:38;;;;;;;12.33;6.67;;;;;;;-1.64;70.73;99024.00;6258113;28;20252;-72
2022/02/28 01:26:41;;;;;;;15.63;7.37;;;;;;;-1.68;70.79;99022.31;6253578;28;20233;-72
2022/02/28 01:29:44;;;;;;;15.33;7.57;;;;;;;-1.68;71.35;99019.72;6241890;28;20341;-72
2022/02/28 01:32:46;;;;;;;12.53;7.00;;;;;;;-1.71;71.42;99017.19;6228176;28;20792;-73
2022/02/28 01:35:48;;;;;;;12.53;6.93;;;;;;;-1.76;71.92;99018.94;6256818;28;20239;-72
2022/02/28 01:38:50;;;;;;;13.77;7.70;;;;;;;-1.81;72.26;99023.31;6258222;28;20230;-73
2022/02/28 01:41:52;;;;;;;13.00;7.37;;;;;;;-1.78;72.48;99015.50;6260302;28;20242;-72
2022/02/28 01:44:55;;;;;;;15.30;7.17;;;;;;;-1.84;72.46;99018.16;6260953;28;20232;-72
2022/02/28 01:47:58;;;;;;;13.33;6.67;;;;;;;-1.83;72.83;99008.69;6246731;28;20243;-73
2022/02/28 01:51:00;;;;;;;14.40;7.33;;;;;;;-1.84;73.45;99017.31;6256190;28;20697;-73
2022/02/28 01:54:03;;;;;;;14.23;8.63;;;;;;;-1.84;72.10;99010.41;6277754;28;20568;-72
2022/02/28 01:57:06;;;;;;;15.50;8.20;;;;;;;-1.77;72.42;99001.69;6255663;28;20221;-72
2022/02/28 02:00:12;;;;;;;18.73;8.97;;;;;;;-1.67;71.64;99007.63;6244499;28;20225;-73
2022/02/28 02:03:14;;;;;;;16.00;8.03;;;;;;;-1.60;71.03;99009.31;6260617;28;20207;-73
2022/02/28 02:06:19;;;;;;;12.47;6.77;;;;;;;-1.61;71.28;99003.28;6244091;28;20670;-72
2022/02/28 02:09:21;;;;;;;14.83;7.23;;;;;;;-1.66;71.49;98999.88;6254703;28;20683;-73
2022/02/28 02:12:27;;;;;;;15.67;7.57;;;;;;;-1.57;70.97;99010.13;6259199;28;20226;-73
2022/02/28 02:15:29;;;;;;;14.73;8.17;;;;;;;-1.59;71.28;98990.28;6260333;28;20227;-73
2022/02/28 02:18:32;;;;;;;12.07;7.40;;;;;;;-1.65;71.12;98990.38;6259929;28;20305;-73
2022/02/28 02:21:34;;;;;;;16.57;8.80;;;;;;;-1.69;71.70;98989.53;6260246;28;20234;-72
2022/02/28 02:24:36;;;;;;;13.33;7.47;;;;;;;-1.70;71.55;98985.25;6250030;28;20247;-72
2022/02/28 02:27:39;;;;;;;14.20;7.47;;;;;;;-1.72;71.46;98983.56;6251409;28;20239;-73
2022/02/28 02:30:54;;;;;;;17.83;9.23;;;;;;;-1.78;72.12;98974.09;6274561;28;20702;-73
2022/02/28 02:33:58;;;;;;;19.60;9.37;;;;;;;-1.80;72.02;98973.28;6260308;28;20227;-73
2022/02/28 02:37:00;;;;;;;14.50;7.53;;;;;;;-1.88;72.21;98968.16;6257479;28;20237;-73
2022/02/28 02:40:03;;;;;;;14.03;8.30;;;;;;;-1.90;71.87;98963.91;6211316;28;20801;-73
2022/02/28 02:43:05;;;;;;;16.37;8.67;;;;;;;-1.98;72.09;98961.38;6224673;28;20639;-72
2022/02/28 02:46:07;;;;;;;15.67;9.13;;;;;;;-2.03;72.55;98957.13;6263439;28;20299;-72
2022/02/28 02:49:10;;;;;;;16.93;8.40;;;;;;;-1.99;71.89;98953.63;6260290;28;20230;-72
2022/02/28 02:52:12;;;;;;;15.33;8.97;;;;;;;-1.95;71.75;98952.72;6258809;28;20242;-73
2022/02/28 02:55:14;;;;;;;16.90;9.10;;;;;;;-2.07;72.02;98948.53;6252094;28;20226;-74
2022/02/28 02:58:16;;;;;;;14.93;8.17;;;;;;;-2.06;72.19;98950.25;6255883;28;20226;-71
2022/02/28 03:01:20;;;;;;;13.60;8.33;;;;;;;-1.92;71.52;98951.00;6259780;28;20447;-73
2022/02/28 03:04:23;;;;;;;17.53;8.90;;;;;;;-1.86;71.17;98945.72;6263430;28;20245;-72
2022/02/28 03:07:25;;;;;;;14.83;8.20;;;;;;;-1.82;71.07;98935.38;6257681;28;20234;-74
2022/02/28 03:10:28;;;;;;;16.73;8.37;;;;;;;-1.89;71.53;98939.72;6253133;28;20242;-72
2022/02/28 03:13:32;;;;;;;17.23;9.03;;;;;;;-1.83;71.40;98933.66;6259695;28;20427;-73
2022/02/28 03:16:35;;;;;;;15.70;8.43;;;;;;;-1.80;70.76;98942.25;6258627;28;20238;-72
2022/02/28 03:19:37;;;;;;;18.60;9.43;;;;;;;-1.82;71.01;98949.16;6242345;28;20248;-73
2022/02/28 03:22:40;;;;;;;15.70;8.63;;;;;;;-1.81;71.51;98950.03;6258530;28;20694;-73
2022/02/28 03:25:42;;;;;;;15.30;9.53;;;;;;;-1.84;71.38;98945.72;6258628;28;20260;-72
2022/02/28 03:28:44;;;;;;;15.37;8.73;;;;;;;-1.84;71.73;98947.44;6259238;28;20261;-73
2022/02/28 03:31:47;;;;;;;20.13;10.00;;;;;;;-1.87;71.38;98959.53;6276233;28;20234;-72
2022/02/28 03:34:50;;;;;;;19.70;9.73;;;;;;;-1.87;71.81;98946.59;6257908;28;20585;-73
2022/02/28 03:37:53;;;;;;;16.03;8.73;;;;;;;-1.91;71.63;98947.53;6242231;28;20234;-72
2022/02/28 03:40:55;;;;;;;16.83;9.87;;;;;;;-2.01;72.10;98945.91;6247307;28;20252;-74
2022/02/28 03:43:58;;;;;;;18.50;9.93;;;;;;;-2.10;72.25;98946.00;6257745;28;20289;-73
2022/02/28 03:47:05;;;;;;;17.63;9.83;;;;;;;-2.14;72.75;98949.47;6256833;28;20292;-73
2022/02/28 03:50:25;;;;;;;18.07;9.57;;;;;;;-2.20;72.74;98941.78;6276011;28;20226;-73
2022/02/28 03:53:27;;;;;;;21.90;10.97;;;;;;;-2.26;72.66;98937.50;6276830;28;20295;-72
2022/02/28 03:56:29;;;;;;;23.13;10.80;;;;;;;-2.25;73.10;98939.22;6275722;28;20333;-73
2022/02/28 03:59:32;;;;;;;20.37;10.83;;;;;;;-2.27;73.20;98940.97;6257800;28;20232;-73
2022/02/28 04:02:34;;;;;;;18.67;10.83;;;;;;;-2.26;72.98;98942.69;6256862;28;20757;-72
2022/02/28 04:05:36;;;;;;;21.97;10.20;;;;;;;-2.27;73.23;98950.44;6257559;28;20635;-72
2022/02/28 04:08:39;;;;;;;18.73;11.00;;;;;;;-2.28;72.66;98947.00;6256589;28;20234;-73
2022/02/28 04:11:41;;;;;;;21.13;11.33;;;;;;;-2.30;73.03;98955.66;6241370;28;20705;-72
2022/02/28 04:14:46;;;;;;;22.63;11.10;;;;;;;-2.27;73.01;98951.31;6258289;28;20234;-73
2022/02/28 04:17:49;;;;;;;22.97;11.30;;;;;;;-2.25;72.93;98957.31;6257296;28;20716;-72
2022/02/28 04:20:57;;;;;;;20.70;12.00;;;;;;;-2.21;72.38;98947.81;6256820;28;20246;-72
2022/02/28 04:23:59;;;;;;;22.57;11.73;;;;;;;-2.20;72.35;98956.44;6275019;28;20230;-72
2022/02/28 04:27:01;;;;;;;18.20;10.70;;;;;;;-2.18;72.09;98949.50;6257827;28;20230;-72
2022/02/28 04:30:05;;;;;;;23.67;11.90;;;;;;;-2.18;72.30;98954.69;6258285;28;20332;-73
2022/02/28 04:33:07;;;;;;;21.73;11.20;;;;;;;-2.13;71.84;98961.53;6256549;28;20301;-72
2022/02/28 04:36:09;;;;;;;20.10;11.33;;;;;;;-2.09;72.03;98952.00;6245117;28;20238;-72
2022/02/28 04:39:12;;;;;;;16.27;10.27;;;;;;;-2.07;71.98;98960.59;6248822;28;20702;-73
2022/02/28 04:42:15;;;;;;;22.73;11.83;;;;;;;-2.08;71.76;98964.06;6257531;28;20275;-73
2022/02/28 04:45:17;;;;;;;20.77;11.30;;;;;;;-2.07;71.06;98961.47;6257497;28;20630;-74
2022/02/28 04:48:21;;;;;;;19.57;11.03;;;;;;;-2.01;70.54;98953.66;6256327;28;20233;-74
2022/02/28 04:51:44;;;;;;;19.40;10.37;;;;;;;-1.95;70.73;98952.72;6274985;28;20246;-72
2022/02/28 04:54:51;;;;;;;24.40;11.43;;;;;;;-1.91;69.81;98954.44;6274635;28;20238;-72
2022/02/28 04:57:55;;;;;;;18.80;10.17;;;;;;;-1.87;69.55;98962.13;6258558;28;20372;-71
2022/02/28 05:01:17;;;;;;;17.53;10.07;;;;;;;-1.85;69.86;98964.69;6259481;28;20345;-72
2022/02/28 05:04:22;;;;;;;17.70;9.97;;;;;;;-1.81;69.68;98965.53;6241137;28;20249;-72
2022/02/28 05:07:24;;;;;;;18.50;11.10;;;;;;;-1.83;70.04;98968.13;6269265;28;20321;-73
2022/02/28 05:10:26;;;;;;;18.73;10.73;;;;;;;-1.80;69.43;98975.88;6244186;28;20267;-72
2022/02/28 05:13:37;;;;;;;17.60;10.50;;;;;;;-1.77;68.27;98968.06;6256196;28;20230;-72
2022/02/28 05:16:41;;;;;;;18.23;10.67;;;;;;;-1.76;68.91;98971.50;6256786;28;20371;-71
2022/02/28 05:19:43;;;;;;;20.63;10.97;;;;;;;-1.75;69.04;98968.91;6250178;28;20729;-72
2022/02/28 05:22:46;;;;;;;16.07;9.50;;;;;;;-1.71;68.58;98982.69;6257513;28;20275;-72
2022/02/28 05:25:48;;;;;;;18.23;10.10;;;;;;;-1.70;68.64;98989.56;6257319;28;20409;-71
2022/02/28 05:29:10;;;;;;;17.17;9.80;;;;;;;-1.70;68.54;98974.91;6256645;28;20558;-73
2022/02/28 05:32:12;;;;;;;20.00;9.97;;;;;;;-1.68;68.43;98978.31;6256696;28;20238;-72
2022/02/28 05:35:15;;;;;;;17.83;9.80;;;;;;;-1.74;68.70;98977.53;6256417;28;20249;-72
2022/02/28 05:38:27;;;;;;;17.63;9.83;;;;;;;-1.78;68.12;98986.19;6241687;28;20237;-70
2022/02/28 05:41:33;;;;;;;19.83;9.80;;;;;;;-1.84;68.04;98989.72;6256416;28;20223;-72
2022/02/28 05:44:37;;;;;;;16.17;9.50;;;;;;;-1.87;68.20;98998.34;6258355;28;20237;-72
2022/02/28 05:47:42;;;;;;;15.57;9.73;;;;;;;-1.86;67.64;99002.66;6265348;28;20570;-71
2022/02/28 05:50:47;;;;;;;16.57;9.77;;;;;;;-1.85;68.53;99006.09;6259801;28;20271;-71
2022/02/28 05:53:49;;;;;;;17.77;10.33;;;;;;;-1.81;67.54;99009.53;6278839;28;20276;-72
2022/02/28 05:56:51;;;;;;;18.67;10.70;;;;;;;-1.76;66.71;99010.31;6277805;28;20234;-70
2022/02/28 05:59:53;;;;;;;15.40;9.83;;;;;;;-1.71;67.59;99011.16;6278257;28;20226;-70
2022/02/28 06:02:55;;;;;;;16.53;10.83;;;;;;;-1.64;67.27;99013.66;6277927;28;20609;-70
2022/02/28 06:05:57;;;;;;;19.47;10.53;;;;;;;-1.61;66.78;99008.47;6276585;28;20230;-70
2022/02/28 06:09:03;;;;;;;15.90;9.93;;;;;;;-1.57;67.41;99019.59;6270773;28;20229;-70
2022/02/28 06:12:06;;;;;;;15.50;9.27;;;;;;;-1.59;67.30;99016.19;6258857;28;20242;-70
2022/02/28 06:15:09;;;;;;;17.10;9.90;;;;;;;-1.61;67.28;99016.22;6278097;28;20769;-70
2022/02/28 06:18:11;;;;;;;21.50;10.50;;;;;;;-1.65;68.02;99009.34;6277072;28;20293;-71
2022/02/28 06:21:13;;;;;;;17.43;9.67;;;;;;;-1.67;67.56;99013.66;6236985;28;20272;-70
2022/02/28 06:24:15;;;;;;;17.23;10.03;;;;;;;-1.71;67.73;99008.56;6211403;28;20208;-71
2022/02/28 06:27:19;;;;;;;18.37;9.47;;;;;;;-1.78;68.28;99005.16;6252895;28;20253;-71
2022/02/28 06:30:21;;;;;;;16.00;9.73;;;;;;;-1.84;68.05;99007.81;6260029;28;20211;-73
2022/02/28 06:33:23;;;;;;;17.83;9.93;;;;;;;-1.91;68.73;99001.84;6277848;28;20825;-70
2022/02/28 06:36:26;;;;;;;17.47;9.50;;;;;;;-1.93;68.30;99010.50;6277713;28;20230;-69
2022/02/28 06:39:28;;;;;;;13.90;8.23;;;;;;;-1.96;68.97;99020.84;6244366;28;20226;-69
2022/02/28 06:42:30;;;;;;;18.83;10.17;;;;;;;-1.97;69.60;99012.25;6277037;28;20230;-69
2022/02/28 06:45:31;;;;;;;15.27;9.37;;;;;;;-1.93;69.11;99002.72;6276779;28;20712;-69
2022/02/28 06:48:34;;;;;;;15.37;9.23;;;;;;;-1.84;69.01;99007.81;6259041;28;20693;-69
2022/02/28 06:51:36;;;;;;;17.90;9.77;;;;;;;-1.76;69.08;99000.84;6278246;28;20230;-69
2022/02/28 06:54:38;;;;;;;17.17;9.23;;;;;;;-1.62;68.60;98996.38;6276861;28;20693;-69
2022/02/28 06:57:40;;;;;;;16.03;9.47;;;;;;;-1.49;68.04;98990.19;6258894;28;20239;-69
2022/02/28 07:00:42;;;;;;;14.70;9.20;;;;;;;-1.43;67.79;98994.44;6276384;28;20388;-68
2022/02/28 07:03:56;;;;;;;19.83;9.87;;;;;;;-1.38;67.22;98994.38;6258389;28;20621;-69
2022/02/28 07:06:58;;;;;;;16.33;9.37;;;;;;;-1.22;66.74;99001.09;6273877;28;20229;-69
2022/02/28 07:10:01;;;;;;;16.40;8.90;;;;;;;-1.14;64.88;98999.28;6235759;28;20218;-69
2022/02/28 07:13:05;;;;;;;14.43;8.97;;;;;;;-1.05;64.53;99009.53;6275477;28;20820;-69
2022/02/28 07:16:07;;;;;;;16.33;8.47;;;;;;;-0.91;64.50;99007.63;6276312;28;20710;-68
2022/02/28 07:19:09;;;;;;;14.47;8.20;;;;;;;-0.81;63.69;99004.03;6270934;28;20238;-70
2022/02/28 07:22:11;;;;;;;15.00;8.30;;;;;;;-0.82;62.39;99006.63;6270531;28;20718;-69
2022/02/28 07:25:13;;;;;;;13.17;7.40;;;;;;;-0.80;62.34;99008.31;6258341;28;20237;-70
2022/02/28 07:28:15;;;;;;;14.37;8.43;;;;;;;-0.66;62.15;99002.09;6274643;28;20736;-70
2022/02/28 07:31:19;;;;;;;12.80;8.30;;;;;;;-0.57;61.65;99005.41;6276317;28;20280;-69
2022/02/28 07:34:47;;;;;;;12.83;7.80;;;;;;;-0.58;61.18;99002.81;6275091;28;20509;-70
2022/02/28 07:37:51;;;;;;;11.60;7.43;;;;;;;-0.56;60.02;99006.25;6229359;28;20288;-70
2022/02/28 07:40:53;;;;;;;13.97;8.20;;;;;;;-0.50;60.05;98999.22;6250615;28;20257;-70
2022/02/28 07:43:55;;;;;;;13.70;7.17;;;;;;;-0.45;60.07;99000.03;6250318;28;20295;-69
2022/02/28 07:46:58;;;;;;;12.13;7.40;;;;;;;-0.43;59.96;99005.19;6224676;28;20242;-70
2022/02/28 07:50:01;;;;;;;13.50;7.53;;;;;;;-0.53;59.88;99003.63;6246410;28;20222;-69
2022/02/28 07:53:03;;;;;;;14.30;8.30;;;;;;;-0.49;59.53;99010.47;6250654;28;20234;-70
2022/02/28 07:56:06;;;;;;;10.53;7.57;;;;;;;-0.52;60.10;99013.97;6249338;28;20226;-70
2022/02/28 07:59:08;;;;;;;15.57;7.87;;;;;;;-0.37;59.07;99007.69;6250268;28;20230;-69
2022/02/28 08:02:10;;;;;;;13.60;7.60;;;;;;;-0.26;59.37;99015.31;6249836;28;20845;-69
2022/02/28 08:05:13;;;;;;;10.47;6.77;;;;;;;-0.32;58.20;99016.28;6248397;28;20222;-69
2022/02/28 08:08:18;;;;;;;13.03;8.00;;;;;;;-0.23;58.43;99003.16;6237368;28;20611;-69
2022/02/28 08:11:20;;;;;;;14.23;7.50;;;;;;;-0.18;57.90;98990.09;6250555;28;20262;-69
2022/02/28 08:14:24;;;;;;;14.63;8.07;;;;;;;-0.03;58.01;98988.13;6250386;28;20664;-69
2022/02/28 08:17:27;;;;;;;13.53;7.57;;;;;;;0.05;57.63;98981.94;6249009;28;20227;-69
2022/02/28 08:20:30;;;;;;;12.90;7.27;;;;;;;0.10;56.97;98978.34;6232296;28;20508;-69
2022/02/28 08:23:32;;;;;;;10.93;7.20;;;;;;;0.04;56.22;98995.78;6239383;28;20789;-69
2022/02/28 08:26:34;;;;;;;10.33;7.03;;;;;;;-0.20;55.82;98997.91;6231550;28;20227;-70
2022/02/28 08:29:36;;;;;;;12.17;7.27;;;;;;;-0.22;56.02;98989.31;6250396;28;20360;-69
2022/02/28 08:32:38;;;;;;;13.00;6.97;;;;;;;-0.18;56.44;98997.88;6247501;28;20227;-69
2022/02/28 09:35:11;;;;;;;7.77;4.67;;;;;;;1.77;46.11;98998.28;4421752;28;20231;-70
2022/02/28 09:38:14;;;;;;;7.70;4.67;;;;;;;1.97;45.39;98989.13;6241675;28;20313;-70
2022/02/28 09:41:18;;;;;;;8.57;5.53;;;;;;;2.22;46.16;98987.59;6260950;28;20628;-70
2022/02/28 09:44:39;;;;;;;8.20;5.23;;;;;;;2.76;45.00;98994.84;6278793;28;20634;-73
2022/02/28 09:47:44;;;;;;;9.73;4.83;;;;;;;2.16;43.46;98991.22;6278737;28;20459;-70
2022/02/28 09:51:04;;;;;;;9.60;4.93;;;;;;;1.87;45.61;99009.31;6277994;28;20234;-70
2022/02/28 09:54:09;;;;;;;7.20;4.80;;;;;;;2.30;44.79;98992.59;6278600;28;20760;-71
2022/02/28 09:57:46;;;;;;;6.97;4.70;;;;;;;2.63;43.83;99004.72;6277734;28;20238;-70
2022/02/28 10:00:56;;;;;;;9.53;4.73;;;;;;;2.23;45.45;98991.91;6260683;28;20226;-70
2022/02/28 10:03:59;;;;;;;8.63;4.63;;;;;;;1.73;44.73;98991.41;6260063;28;20236;-71
2022/02/28 10:07:22;;;;;;;8.53;4.80;;;;;;;1.67;45.39;98988.13;6258314;28;20710;-70
2022/02/28 10:10:26;;;;;;;6.43;4.20;;;;;;;1.58;45.61;98988.34;6268274;28;20308;-70
2022/02/28 10:13:29;;;;;;;6.70;4.07;;;;;;;1.73;43.54;98983.59;6260118;28;20242;-70
2022/02/28 10:16:45;;;;;;;7.00;4.20;;;;;;;2.03;43.37;98974.19;6242684;28;20667;-70
2022/02/28 10:19:47;;;;;;;6.93;3.90;;;;;;;2.25;44.32;98973.63;6254853;28;20614;-70
2022/02/28 10:22:52;;;;;;;5.63;3.80;;;;;;;2.11;44.08;98987.00;6258968;28;20834;-70
2022/02/28 10:25:54;;;;;;;5.03;3.33;;;;;;;1.65;44.08;98984.69;6260681;28;20226;-69
2022/02/28 10:29:18;;;;;;;9.00;4.13;;;;;;;1.47;44.13;98984.22;6276640;28;20314;-70
2022/02/28 10:32:48;;;;;;;5.90;3.40;;;;;;;1.23;45.08;98989.97;6241094;28;20237;-69
2022/02/28 10:36:21;;;;;;;5.63;3.73;;;;;;;1.15;44.84;98988.44;6223608;28;20230;-69
2022/02/28 10:39:34;;;;;;;4.73;3.23;;;;;;;1.11;45.05;98988.50;6235163;28;20654;-69
2022/02/28 10:42:54;;;;;;;5.90;3.30;;;;;;;1.10;45.99;98978.97;6227646;28;20220;-69
2022/02/28 10:45:58;;;;;;;6.33;3.60;;;;;;;1.20;46.78;98984.84;6277253;28;20234;-69
2022/02/28 10:49:07;;;;;;;5.03;3.30;;;;;;;1.10;46.93;98991.13;6278236;28;20264;-69
2022/02/28 10:52:13;;;;;;;7.50;3.80;;;;;;;0.95;47.66;98994.06;6259677;28;20238;-69
2022/02/28 10:55:32;;;;;;;6.00;3.23;;;;;;;0.90;47.43;98991.53;6276739;28;20646;-69
2022/02/28 10:58:35;;;;;;;5.57;3.83;;;;;;;1.04;47.51;98992.13;6259854;28;20317;-69
2022/02/28 11:01:40;;;;;;;6.93;3.90;;;;;;;1.10;46.25;98993.72;6259249;28;20598;-69
2022/02/28 11:04:42;;;;;;;5.67;3.77;;;;;;;1.29;46.69;98982.06;6275539;28;20226;-69
2022/02/28 11:07:47;;;;;;;7.60;4.10;;;;;;;1.38;45.99;98979.25;6272932;28;20256;-70
2022/02/28 11:10:51;;;;;;;7.60;4.10;;;;;;;1.11;45.48;98979.84;6258608;28;20234;-69
2022/02/28 11:13:53;;;;;;;6.53;3.57;;;;;;;0.98;46.87;98981.88;6258612;28;20903;-70
2022/02/28 11:16:56;;;;;;;5.20;3.60;;;;;;;0.97;46.62;98990.53;6258358;28;20588;-69
2022/02/28 11:20:00;;;;;;;8.03;3.73;;;;;;;0.97;47.29;98979.28;6263092;28;20243;-69
2022/02/28 11:23:05;;;;;;;5.80;3.73;;;;;;;0.92;46.34;98979.38;6253908;28;20471;-70
2022/02/28 11:26:07;;;;;;;8.27;4.13;;;;;;;1.00;47.62;98974.84;6258076;28;20319;-70
2022/02/28 11:29:11;;;;;;;6.50;3.70;;;;;;;1.20;46.86;98969.22;6276065;28;20744;-69
2022/02/28 11:32:13;;;;;;;8.03;4.77;;;;;;;1.40;46.34;98967.03;6257590;28;20609;-69
2022/02/28 11:35:37;;;;;;;7.17;4.40;;;;;;;1.63;45.33;98978.66;6256087;28;20742;-69
2022/02/28 11:38:42;;;;;;;6.53;4.83;;;;;;;1.83;45.41;98977.28;6263706;28;20639;-69
2022/02/28 11:41:44;;;;;;;6.77;4.40;;;;;;;1.99;44.77;98967.38;6274097;28;20995;-69
2022/02/28 11:44:58;;;;;;;8.37;4.57;;;;;;;2.03;44.83;98955.97;6275476;28;20227;-69
2022/02/28 11:48:26;;;;;;;9.27;4.33;;;;;;;2.00;44.74;98961.25;6276464;28;20362;-69
2022/02/28 11:51:38;;;;;;;7.60;4.90;;;;;;;1.85;43.61;98959.91;6276710;28;20283;-69
2022/02/28 11:54:42;;;;;;;8.03;4.40;;;;;;;1.73;44.17;98959.34;6257181;28;20226;-70
2022/02/28 11:57:50;;;;;;;8.57;4.80;;;;;;;1.82;44.50;98964.31;6274166;28;20241;-70
2022/02/28 12:01:08;;;;;;;9.30;5.33;;;;;;;1.85;43.61;98967.69;6276902;28;20222;-70
2022/02/28 12:04:15;;;;;;;11.97;5.70;;;;;;;1.62;44.01;98966.53;6257582;28;20230;-69
2022/02/28 12:07:35;;;;;;;8.30;5.33;;;;;;;1.64;44.21;98962.16;6269877;28;20231;-70
2022/02/28 12:10:54;;;;;;;7.70;5.20;;;;;;;1.69;44.45;98949.91;6262692;28;20718;-70
2022/02/28 12:14:01;;;;;;;7.17;4.73;;;;;;;1.75;43.35;98957.56;6274321;28;20259;-69
2022/02/28 12:20:31;;;;;;;7.97;5.30;;;;;;;1.77;43.72;98958.38;6245922;28;20828;-70
2022/02/28 12:23:45;;;;;;;9.03;5.43;;;;;;;1.92;42.71;98957.97;6274428;28;20219;-70
2022/02/28 12:27:11;;;;;;;9.73;5.30;;;;;;;2.19;43.25;98964.25;6242271;28;20291;-70
2022/02/28 12:30:38;;;;;;;6.90;4.67;;;;;;;2.43;42.19;98955.75;6256079;28;20371;-69
2022/02/28 12:33:40;;;;;;;7.60;4.80;;;;;;;2.51;43.10;98960.75;6275496;28;20236;-71
2022/02/28 12:36:44;;;;;;;10.77;5.23;;;;;;;2.41;42.59;98954.09;6251524;28;20618;-69
2022/02/28 12:39:52;;;;;;;8.43;5.40;;;;;;;2.19;43.00;98965.13;6271640;28;20257;-69
2022/02/28 12:42:56;;;;;;;9.33;5.17;;;;;;;1.88;42.75;98960.72;6256618;28;20230;-69
2022/02/28 12:46:01;;;;;;;7.77;4.80;;;;;;;1.86;42.90;98965.97;6274912;28;20230;-69
2022/02/28 12:49:06;;;;;;;7.97;4.70;;;;;;;1.82;42.57;98966.91;6256548;28;20325;-69
2022/02/28 12:52:09;;;;;;;7.63;4.80;;;;;;;1.85;42.35;98972.06;6273794;28;20245;-70
2022/02/28 12:55:11;;;;;;;8.93;5.27;;;;;;;2.01;42.16;98965.56;6263151;28;20618;-69
2022/02/28 12:58:20;;;;;;;7.87;5.00;;;;;;;2.02;41.84;98972.47;6261910;28;20617;-69
2022/02/28 13:01:27;;;;;;;6.87;4.80;;;;;;;1.91;41.63;98979.69;6279241;28;20231;-69
2022/02/28 13:04:29;;;;;;;6.53;3.93;;;;;;;1.91;42.58;98981.44;6261929;28;20234;-69
2022/02/28 13:07:32;;;;;;;7.67;4.60;;;;;;;1.89;43.06;98976.31;6272064;28;20323;-69
2022/02/28 13:10:35;;;;;;;6.83;4.13;;;;;;;1.99;43.51;98988.19;6277243;28;20596;-69
2022/02/28 13:13:38;;;;;;;7.20;4.53;;;;;;;1.94;42.63;98989.19;6261362;28;20323;-69
2022/02/28 13:16:44;;;;;;;5.83;4.00;;;;;;;1.90;42.27;98988.41;6277861;28;20234;-69
2022/02/28 13:19:46;;;;;;;7.93;4.37;;;;;;;1.80;42.04;98995.56;6226353;28;20266;-69
2022/02/28 13:22:51;;;;;;;6.43;4.23;;;;;;;1.93;42.52;98987.47;6247914;28;20230;-69
2022/02/28 13:25:58;;;;;;;7.33;3.53;;;;;;;2.11;41.90;98981.78;6282787;28;20646;-69
2022/02/28 13:29:06;;;;;;;6.97;3.90;;;;;;;2.35;41.48;98980.31;6271784;28;20606;-69
2022/02/28 13:32:14;;;;;;;7.10;3.93;;;;;;;2.52;40.32;98975.50;6277516;28;20239;-69
2022/02/28 13:35:17;;;;;;;5.77;4.00;;;;;;;2.67;39.93;98980.31;6278550;28;20678;-69
2022/02/28 13:38:21;;;;;;;4.93;3.30;;;;;;;2.77;39.75;98975.69;6265283;28;20680;-69
2022/02/28 13:41:27;;;;;;;6.00;3.70;;;;;;;2.77;39.32;98979.16;6274273;28;20250;-69
2022/02/28 13:44:34;;;;;;;4.23;3.37;;;;;;;2.83;38.90;98988.53;6259343;28;20240;-69
2022/02/28 13:47:39;;;;;;;8.13;3.80;;;;;;;2.88;39.07;98976.25;6261069;28;20609;-69
2022/02/28 13:50:50;;;;;;;5.23;4.33;;;;;;;2.81;38.83;98987.72;6260256;28;20230;-68
2022/02/28 13:53:54;;;;;;;5.33;3.13;;;;;;;2.73;39.59;98994.91;6277830;28;20238;-69
2022/02/28 13:57:13;;;;;;;4.70;3.47;;;;;;;2.53;39.74;98983.28;6260592;28;20770;-69
2022/02/28 14:00:20;;;;;;;15.83;4.60;;;;;;;2.45;39.61;98982.63;6277661;28;20219;-70
2022/02/28 14:03:27;;;;;;;5.67;3.23;;;;;;;2.36;39.69;98992.44;6277835;28;20275;-70
2022/02/28 14:06:30;;;;;;;7.50;4.10;;;;;;;2.19;40.12;98998.09;6277463;28;20753;-69
2022/02/28 14:09:34;;;;;;;6.57;3.90;;;;;;;2.19;40.05;99000.72;6256471;28;21645;-69
2022/02/28 14:12:39;;;;;;;6.40;3.80;;;;;;;2.27;39.76;99000.50;6258934;28;20254;-70
2022/02/28 14:15:41;;;;;;;4.40;3.27;;;;;;;4.65;35.52;98987.06;6259715;28;20581;-69
2022/02/28 14:19:09;;;;;;;5.20;3.40;;;;;;;5.91;31.57;98982.22;6255835;28;20339;-69
2022/02/28 14:22:24;;;;;;;5.20;2.90;;;;;;;5.06;34.09;98977.69;6254137;28;20767;-69
2022/02/28 14:26:07;;;;;;;5.83;3.30;;;;;;;4.05;34.67;98980.41;6259579;28;20294;-69
2022/02/28 14:29:33;;;;;;;5.17;3.30;;;;;;;3.32;35.98;98993.19;6277732;28;20230;-69
2022/02/28 14:32:41;;;;;;;4.97;3.17;;;;;;;2.95;37.32;98986.44;6276795;28;20231;-69
2022/02/28 14:35:45;;;;;;;4.53;3.00;;;;;;;3.01;37.29;99008.00;6275675;28;20238;-69
2022/02/28 14:38:48;;;;;;;4.67;3.77;;;;;;;3.10;36.95;98999.91;6271209;28;20241;-69
2022/02/28 14:41:50;;;;;;;5.90;3.47;;;;;;;3.33;37.16;99002.72;6259066;28;20319;-69
2022/02/28 14:44:52;;;;;;;5.37;3.57;;;;;;;3.34;37.34;99007.03;6259143;28;20611;-70
2022/02/28 14:47:55;;;;;;;4.83;3.13;;;;;;;3.14;37.50;99002.41;6276993;28;20589;-70
2022/02/28 14:50:57;;;;;;;5.57;3.67;;;;;;;2.95;37.33;99003.84;6277176;28;20268;-70
2022/02/28 14:53:59;;;;;;;7.03;3.33;;;;;;;2.89;39.04;99012.69;6277276;28;20613;-69
2022/02/28 14:57:02;;;;;;;5.93;3.40;;;;;;;2.53;38.99;99024.13;6257997;28;20228;-69
2022/02/28 15:00:06;;;;;;;6.10;3.70;;;;;;;2.33;38.27;99031.59;6276367;28;20638;-69
2022/02/28 15:03:08;;;;;;;5.90;3.70;;;;;;;2.23;39.08;99025.75;6276550;28;20590;-69
2022/02/28 15:06:10;;;;;;;5.57;3.60;;;;;;;2.14;38.21;99032.06;6275809;28;20233;-69
2022/02/28 15:09:13;;;;;;;5.27;3.50;;;;;;;2.12;38.50;99030.38;6260244;28;20648;-69
2022/02/28 15:12:15;;;;;;;5.90;3.67;;;;;;;2.32;38.88;99024.66;6258383;28;20202;-72
2022/02/28 15:15:17;;;;;;;6.00;3.30;;;;;;;2.47;38.43;99037.31;6276473;28;20249;-71
2022/02/28 15:18:20;;;;;;;6.47;3.70;;;;;;;2.59;37.82;99042.22;6257840;28;20581;-71
2022/02/28 15:21:22;;;;;;;5.10;3.30;;;;;;;2.53;37.52;99032.78;6254818;28;20694;-71
2022/02/28 15:24:26;;;;;;;5.90;3.40;;;;;;;2.50;38.03;99032.84;6257716;28;20231;-71
2022/02/28 15:27:28;;;;;;;5.53;3.73;;;;;;;2.48;38.34;99042.50;6258629;28;20226;-72
2022/02/28 15:30:30;;;;;;;6.40;4.20;;;;;;;2.40;37.98;99047.00;6276235;28;20341;-72
2022/02/28 15:33:33;;;;;;;5.57;3.57;;;;;;;2.36;38.69;99041.94;6275245;28;20733;-72
2022/02/28 15:36:35;;;;;;;4.93;3.43;;;;;;;2.30;39.03;99037.72;6275110;28;20602;-72
2022/02/28 15:39:37;;;;;;;5.10;3.63;;;;;;;2.19;38.87;99042.38;6232895;28;20659;-72
2022/02/28 15:42:39;;;;;;;6.37;3.60;;;;;;;2.01;39.14;99043.66;6275210;28;20355;-72
2022/02/28 15:45:44;;;;;;;6.07;4.07;;;;;;;1.91;39.54;99036.09;6276012;28;20239;-71
2022/02/28 15:48:46;;;;;;;7.17;3.90;;;;;;;1.76;39.78;99035.59;6275092;28;20645;-71
2022/02/28 15:51:48;;;;;;;5.73;3.73;;;;;;;1.63;40.09;99046.31;6258291;28;20283;-71
2022/02/28 15:54:51;;;;;;;6.87;3.60;;;;;;;1.47;40.75;99051.88;6274897;28;20618;-71
2022/02/28 15:57:55;;;;;;;5.43;3.37;;;;;;;1.30;42.63;99053.94;6256906;28;20636;-71
2022/02/28 16:00:58;;;;;;;5.33;3.43;;;;;;;1.08;43.76;99053.56;6275142;28;20321;-71
2022/02/28 16:04:01;;;;;;;6.83;3.93;;;;;;;1.05;42.14;99048.41;6276105;28;20325;-74
2022/02/28 16:07:03;;;;;;;7.17;4.00;;;;;;;1.05;42.71;99051.00;6272316;28;20268;-72
2022/02/28 16:10:09;;;;;;;5.63;3.70;;;;;;;1.01;42.26;99058.88;6256201;28;20241;-72